createdAt,value
2018-01-22T00:00:00.936Z,0
2018-01-22T00:01:02.791Z,0
2018-01-22T00:02:04.645Z,0
2018-01-22T00:03:06.439Z,0
2018-01-22T00:04:08.247Z,0
2018-01-22T00:05:10.116Z,0
2018-01-22T00:06:11.975Z,0
2018-01-22T00:07:13.837Z,0
2018-01-22T00:08:27.983Z,0
2018-01-22T00:09:29.849Z,0
2018-01-22T00:10:31.734Z,0
2018-01-22T00:11:33.606Z,0
2018-01-22T00:12:35.404Z,0
2018-01-22T00:13:37.223Z,0
2018-01-22T00:14:39.107Z,0
2018-01-22T00:15:40.985Z,0
2018-01-22T00:16:42.841Z,0
2018-01-22T00:17:56.994Z,0
2018-01-22T00:18:58.876Z,0
2018-01-22T00:20:00.754Z,0
2018-01-22T00:21:02.608Z,0
2018-01-22T00:22:04.399Z,0
2018-01-22T00:23:06.198Z,0
2018-01-22T00:24:08.058Z,0
2018-01-22T00:25:09.935Z,0
2018-01-22T00:26:11.795Z,0
2018-01-22T00:27:25.995Z,0
2018-01-22T00:28:27.872Z,0
2018-01-22T00:29:29.733Z,0
2018-01-22T00:30:31.587Z,0
2018-01-22T00:31:33.388Z,0
2018-01-22T00:32:35.182Z,0
2018-01-22T00:33:37.041Z,0
2018-01-22T00:34:38.890Z,0
2018-01-22T00:35:40.750Z,0
2018-01-22T00:36:54.900Z,0
2018-01-22T00:37:56.783Z,0
2018-01-22T00:38:58.666Z,0
2018-01-22T00:40:00.545Z,0
2018-01-22T00:41:02.343Z,0
2018-01-22T00:42:04.158Z,0
2018-01-22T00:43:06.034Z,0
2018-01-22T00:44:07.893Z,0
2018-01-22T00:45:09.747Z,0
2018-01-22T00:46:23.872Z,0
2018-01-22T00:47:25.737Z,0
2018-01-22T00:48:27.590Z,0
2018-01-22T00:49:29.448Z,0
2018-01-22T00:50:31.235Z,0
2018-01-22T00:51:33.027Z,0
2018-01-22T00:52:34.886Z,0
2018-01-22T00:53:36.769Z,0
2018-01-22T00:54:38.645Z,0
2018-01-22T00:55:52.770Z,0
2018-01-22T00:56:54.635Z,0
2018-01-22T00:57:56.512Z,0
2018-01-22T00:58:58.371Z,0
2018-01-22T01:00:00.166Z,0
2018-01-22T01:01:01.960Z,0
2018-01-22T01:02:03.817Z,0
2018-01-22T01:03:05.678Z,0
2018-01-22T01:04:07.557Z,0
2018-01-22T01:05:21.706Z,0
2018-01-22T01:06:23.563Z,0
2018-01-22T01:07:25.424Z,0
2018-01-22T01:08:27.280Z,0
2018-01-22T01:09:29.095Z,0
2018-01-22T01:10:30.903Z,0
2018-01-22T01:11:32.765Z,0
2018-01-22T01:12:34.647Z,0
2018-01-22T01:13:36.506Z,0
2018-01-22T01:14:50.655Z,0
2018-01-22T01:15:52.538Z,0
2018-01-22T01:16:54.422Z,0
2018-01-22T01:17:56.300Z,0
2018-01-22T01:18:58.116Z,0
2018-01-22T01:19:59.933Z,0
2018-01-22T01:21:01.812Z,0
2018-01-22T01:22:03.675Z,0
2018-01-22T01:23:05.551Z,0
2018-01-22T01:24:19.710Z,0
2018-01-22T01:25:21.582Z,0
2018-01-22T01:26:23.468Z,0
2018-01-22T01:27:25.347Z,0
2018-01-22T01:28:27.155Z,0
2018-01-22T01:29:28.954Z,0
2018-01-22T01:30:30.831Z,0
2018-01-22T01:31:32.697Z,0
2018-01-22T01:32:34.576Z,0
2018-01-22T01:33:48.700Z,0
2018-01-22T01:34:50.557Z,0
2018-01-22T01:35:52.413Z,0
2018-01-22T01:36:54.275Z,0
2018-01-22T01:37:56.068Z,0
2018-01-22T01:38:57.878Z,0
2018-01-22T01:39:59.744Z,0
2018-01-22T01:41:01.624Z,0
2018-01-22T01:42:03.504Z,0
2018-01-22T01:43:17.649Z,0
2018-01-22T01:44:19.527Z,0
2018-01-22T01:45:21.389Z,0
2018-01-22T01:46:23.272Z,0
2018-01-22T01:47:25.078Z,0
2018-01-22T01:48:26.875Z,0
2018-01-22T01:49:28.757Z,0
2018-01-22T01:50:30.617Z,0
2018-01-22T01:51:32.496Z,0
2018-01-22T01:52:46.645Z,0
2018-01-22T01:53:48.529Z,0
2018-01-22T01:54:50.400Z,0
2018-01-22T01:55:52.258Z,0
2018-01-22T01:56:54.051Z,0
2018-01-22T01:57:55.865Z,0
2018-01-22T01:58:57.722Z,0
2018-01-22T01:59:59.585Z,0
2018-01-22T02:01:01.460Z,0
2018-01-22T02:02:15.658Z,0
2018-01-22T02:03:17.536Z,0
2018-01-22T02:04:19.403Z,0
2018-01-22T02:05:21.285Z,0
2018-01-22T02:06:23.074Z,0
2018-01-22T02:07:24.885Z,0
2018-01-22T02:08:26.742Z,0
2018-01-22T02:09:28.623Z,0
2018-01-22T02:10:30.505Z,0
2018-01-22T02:11:44.654Z,0
2018-01-22T02:12:46.513Z,0
2018-01-22T02:13:48.394Z,0
2018-01-22T02:14:50.273Z,0
2018-01-22T02:15:52.067Z,0
2018-01-22T02:16:53.886Z,0
2018-01-22T02:17:55.767Z,0
2018-01-22T02:18:57.649Z,0
2018-01-22T02:19:59.504Z,0
2018-01-22T02:21:13.647Z,0
2018-01-22T02:22:15.510Z,0
2018-01-22T02:23:17.391Z,0
2018-01-22T02:24:19.280Z,0
2018-01-22T02:25:21.076Z,0
2018-01-22T02:26:22.872Z,0
2018-01-22T02:27:24.750Z,0
2018-01-22T02:28:26.617Z,0
2018-01-22T02:29:28.488Z,0
2018-01-22T02:30:42.680Z,0
2018-01-22T02:31:44.541Z,0
2018-01-22T02:32:46.423Z,0
2018-01-22T02:33:48.298Z,0
2018-01-22T02:34:50.094Z,0
2018-01-22T02:35:51.913Z,0
2018-01-22T02:36:53.798Z,0
2018-01-22T02:37:55.670Z,0
2018-01-22T02:38:57.529Z,0
2018-01-22T02:40:11.660Z,0
2018-01-22T02:41:13.531Z,0
2018-01-22T02:42:15.393Z,0
2018-01-22T02:43:17.275Z,0
2018-01-22T02:44:19.090Z,0
2018-01-22T02:45:20.905Z,0
2018-01-22T02:46:22.760Z,0
2018-01-22T02:47:24.636Z,0
2018-01-22T02:48:26.494Z,0
2018-01-22T02:49:40.669Z,0
2018-01-22T02:50:42.542Z,0
2018-01-22T02:51:44.399Z,0
2018-01-22T02:52:46.257Z,0
2018-01-22T02:53:48.052Z,0
2018-01-22T02:54:49.849Z,0
2018-01-22T02:55:51.697Z,0
2018-01-22T02:56:53.554Z,0
2018-01-22T02:57:55.414Z,0
2018-01-22T02:59:09.556Z,0
2018-01-22T03:00:11.416Z,0
2018-01-22T03:01:13.275Z,0
2018-01-22T03:02:15.151Z,0
2018-01-22T03:03:16.947Z,0
2018-01-22T03:04:18.761Z,0
2018-01-22T03:05:20.638Z,0
2018-01-22T03:06:22.502Z,0
2018-01-22T03:07:24.371Z,0
2018-01-22T03:08:38.503Z,0
2018-01-22T03:09:40.377Z,0
2018-01-22T03:10:42.234Z,0
2018-01-22T03:11:44.089Z,0
2018-01-22T03:12:45.887Z,0
2018-01-22T03:13:47.684Z,0
2018-01-22T03:14:49.559Z,0
2018-01-22T03:15:51.421Z,0
2018-01-22T03:16:53.342Z,0
2018-01-22T03:18:07.433Z,0
2018-01-22T03:19:09.292Z,0
2018-01-22T03:20:11.148Z,0
2018-01-22T03:21:13.008Z,0
2018-01-22T03:22:14.819Z,0
2018-01-22T03:23:16.613Z,0
2018-01-22T03:24:18.472Z,0
2018-01-22T03:25:20.351Z,0
2018-01-22T03:26:22.210Z,0
2018-01-22T03:27:36.330Z,0
2018-01-22T03:28:38.192Z,0
2018-01-22T03:29:40.045Z,0
2018-01-22T03:30:41.900Z,0
2018-01-22T03:31:43.698Z,0
2018-01-22T03:32:45.509Z,0
2018-01-22T03:33:47.371Z,0
2018-01-22T03:34:49.257Z,0
2018-01-22T03:35:51.133Z,0
2018-01-22T03:37:05.292Z,0
2018-01-22T03:38:07.168Z,0
2018-01-22T03:39:09.047Z,0
2018-01-22T03:40:10.924Z,0
2018-01-22T03:41:12.728Z,0
2018-01-22T03:42:14.528Z,0
2018-01-22T03:43:16.403Z,0
2018-01-22T03:44:18.263Z,0
2018-01-22T03:45:20.141Z,0
2018-01-22T03:46:34.288Z,0
2018-01-22T03:47:36.138Z,0
2018-01-22T03:48:38.001Z,0
2018-01-22T03:49:39.876Z,0
2018-01-22T03:50:41.670Z,0
2018-01-22T03:51:43.462Z,0
2018-01-22T03:52:45.321Z,0
2018-01-22T03:53:47.199Z,0
2018-01-22T03:54:49.060Z,0
2018-01-22T03:56:03.209Z,0
2018-01-22T03:57:05.088Z,0
2018-01-22T03:58:06.968Z,0
2018-01-22T03:59:08.846Z,0
2018-01-22T04:00:10.643Z,0
2018-01-22T04:01:12.456Z,0
2018-01-22T04:02:14.313Z,0
2018-01-22T04:03:16.189Z,0
2018-01-22T04:04:18.047Z,0
2018-01-22T04:05:32.242Z,0
2018-01-22T04:06:34.128Z,0
2018-01-22T04:07:35.983Z,0
2018-01-22T04:08:37.842Z,0
2018-01-22T04:09:39.637Z,0
2018-01-22T04:10:41.422Z,0
2018-01-22T04:11:43.277Z,0
2018-01-22T04:12:45.132Z,0
2018-01-22T04:13:46.992Z,0
2018-01-22T04:15:01.131Z,0
2018-01-22T04:16:02.986Z,0
2018-01-22T04:17:04.850Z,0
2018-01-22T04:18:06.699Z,0
2018-01-22T04:19:08.495Z,0
2018-01-22T04:20:10.289Z,0
2018-01-22T04:21:12.170Z,0
2018-01-22T04:22:14.050Z,0
2018-01-22T04:23:15.909Z,0
2018-01-22T04:24:30.061Z,0
2018-01-22T04:25:31.916Z,0
2018-01-22T04:26:33.789Z,0
2018-01-22T04:27:35.645Z,0
2018-01-22T04:28:37.446Z,0
2018-01-22T04:29:39.263Z,0
2018-01-22T04:30:41.136Z,0
2018-01-22T04:31:42.998Z,0
2018-01-22T04:32:44.852Z,0
2018-01-22T04:33:59.042Z,0
2018-01-22T04:35:00.900Z,0
2018-01-22T04:36:02.752Z,0
2018-01-22T04:37:04.607Z,0
2018-01-22T04:38:06.398Z,0
2018-01-22T04:39:08.196Z,0
2018-01-22T04:40:10.076Z,0
2018-01-22T04:41:11.956Z,0
2018-01-22T04:42:13.837Z,0
2018-01-22T04:43:27.983Z,0
2018-01-22T04:44:29.856Z,0
2018-01-22T04:45:31.716Z,0
2018-01-22T04:46:33.569Z,0
2018-01-22T04:47:35.361Z,0
2018-01-22T04:48:37.159Z,0
2018-01-22T04:49:39.037Z,0
2018-01-22T04:50:40.921Z,0
2018-01-22T04:51:42.800Z,0
2018-01-22T04:52:56.995Z,0
2018-01-22T04:53:58.851Z,0
2018-01-22T04:55:00.730Z,0
2018-01-22T04:56:02.582Z,0
2018-01-22T04:57:04.385Z,0
2018-01-22T04:58:06.194Z,0
2018-01-22T04:59:08.056Z,0
2018-01-22T05:00:09.933Z,0
2018-01-22T05:01:11.787Z,0
2018-01-22T05:02:25.969Z,0
2018-01-22T05:03:27.845Z,0
2018-01-22T05:04:29.701Z,0
2018-01-22T05:05:31.576Z,0
2018-01-22T05:06:33.367Z,0
2018-01-22T05:07:35.160Z,0
2018-01-22T05:08:37.019Z,0
2018-01-22T05:09:38.896Z,0
2018-01-22T05:10:40.713Z,0
2018-01-22T05:11:54.854Z,0
2018-01-22T05:12:56.715Z,0
2018-01-22T05:13:58.597Z,0
2018-01-22T05:15:00.473Z,0
2018-01-22T05:16:02.265Z,0
2018-01-22T05:17:04.056Z,0
2018-01-22T05:18:05.912Z,0
2018-01-22T05:19:07.771Z,0
2018-01-22T05:20:09.623Z,0
2018-01-22T05:21:23.752Z,0
2018-01-22T05:22:25.628Z,0
2018-01-22T05:23:27.492Z,0
2018-01-22T05:24:29.365Z,0
2018-01-22T05:25:31.160Z,0
2018-01-22T05:26:32.962Z,0
2018-01-22T05:27:34.841Z,0
2018-01-22T05:28:36.692Z,0
2018-01-22T05:29:38.548Z,0
2018-01-22T05:30:52.669Z,0
2018-01-22T05:31:54.528Z,0
2018-01-22T05:32:56.405Z,0
2018-01-22T05:33:58.258Z,0
2018-01-22T05:35:00.054Z,0
2018-01-22T05:36:01.841Z,0
2018-01-22T05:37:03.699Z,0
2018-01-22T05:38:05.579Z,0
2018-01-22T05:39:07.459Z,0
2018-01-22T05:40:21.579Z,0
2018-01-22T05:41:23.435Z,0
2018-01-22T05:42:25.289Z,0
2018-01-22T05:43:27.143Z,0
2018-01-22T05:44:28.935Z,0
2018-01-22T05:45:30.732Z,0
2018-01-22T05:46:32.573Z,0
2018-01-22T05:47:34.447Z,0
2018-01-22T05:48:36.310Z,0
2018-01-22T05:49:50.452Z,0
2018-01-22T05:50:52.306Z,0
2018-01-22T05:51:54.170Z,0
2018-01-22T05:52:56.045Z,0
2018-01-22T05:53:57.838Z,0
2018-01-22T05:54:59.632Z,0
2018-01-22T05:56:01.511Z,0
2018-01-22T05:57:03.387Z,0
2018-01-22T05:58:05.244Z,0
2018-01-22T05:59:19.372Z,0
2018-01-22T06:00:21.245Z,0
2018-01-22T06:01:23.108Z,0
2018-01-22T06:02:24.984Z,0
2018-01-22T06:03:26.776Z,0
2018-01-22T06:04:28.572Z,0
2018-01-22T06:05:30.446Z,0
2018-01-22T06:06:32.311Z,0
2018-01-22T06:07:34.224Z,0
2018-01-22T06:08:48.407Z,0
2018-01-22T06:09:50.270Z,0
2018-01-22T06:10:52.144Z,0
2018-01-22T06:11:53.995Z,0
2018-01-22T06:12:55.794Z,0
2018-01-22T06:13:57.580Z,0
2018-01-22T06:14:59.441Z,0
2018-01-22T06:16:01.301Z,0
2018-01-22T06:17:03.184Z,4
2018-01-22T06:18:17.330Z,4
2018-01-22T06:19:19.211Z,0
2018-01-22T06:20:21.082Z,4
2018-01-22T06:21:22.940Z,4
2018-01-22T06:22:24.733Z,4
2018-01-22T06:23:26.549Z,8
2018-01-22T06:24:28.427Z,4
2018-01-22T06:25:30.287Z,4
2018-01-22T06:26:32.164Z,8
2018-01-22T06:27:46.309Z,12
2018-01-22T06:28:48.165Z,12
2018-01-22T06:29:50.020Z,12
2018-01-22T06:30:51.876Z,16
2018-01-22T06:31:53.677Z,20
2018-01-22T06:32:55.495Z,20
2018-01-22T06:33:57.372Z,24
2018-01-22T06:34:59.233Z,28
2018-01-22T06:36:01.117Z,28
2018-01-22T06:37:15.237Z,36
2018-01-22T06:38:17.094Z,40
2018-01-22T06:39:18.953Z,48
2018-01-22T06:40:20.808Z,52
2018-01-22T06:41:22.598Z,60
2018-01-22T06:42:24.399Z,68
2018-01-22T06:43:26.275Z,76
2018-01-22T06:44:28.133Z,84
2018-01-22T06:45:29.987Z,92
2018-01-22T06:46:44.111Z,100
2018-01-22T06:47:45.974Z,108
2018-01-22T06:48:47.850Z,120
2018-01-22T06:49:49.704Z,132
2018-01-22T06:50:51.534Z,140
2018-01-22T06:51:53.328Z,152
2018-01-22T06:52:55.186Z,160
2018-01-22T06:53:57.052Z,172
2018-01-22T06:54:58.933Z,180
2018-01-22T06:56:13.086Z,196
2018-01-22T06:57:14.943Z,208
2018-01-22T06:58:16.803Z,224
2018-01-22T06:59:18.656Z,244
2018-01-22T07:00:20.461Z,264
2018-01-22T07:01:22.256Z,284
2018-01-22T07:02:24.135Z,304
2018-01-22T07:03:25.994Z,336
2018-01-22T07:04:27.853Z,340
2018-01-22T07:05:42.028Z,392
2018-01-22T07:06:43.887Z,416
2018-01-22T07:07:45.771Z,408
2018-01-22T07:08:47.673Z,392
2018-01-22T07:09:49.433Z,444
2018-01-22T07:10:51.251Z,440
2018-01-22T07:11:53.133Z,416
2018-01-22T07:12:55.011Z,452
2018-01-22T07:13:56.872Z,460
2018-01-22T07:15:11.003Z,448
2018-01-22T07:16:12.890Z,440
2018-01-22T07:17:14.745Z,428
2018-01-22T07:18:16.633Z,456
2018-01-22T07:19:18.457Z,464
2018-01-22T07:20:20.272Z,496
2018-01-22T07:21:22.129Z,460
2018-01-22T07:22:23.985Z,528
2018-01-22T07:23:25.844Z,584
2018-01-22T07:24:40.023Z,532
2018-01-22T07:25:41.908Z,612
2018-01-22T07:26:43.791Z,652
2018-01-22T07:27:45.653Z,640
2018-01-22T07:28:47.455Z,648
2018-01-22T07:29:49.247Z,832
2018-01-22T07:30:51.107Z,812
2018-01-22T07:31:52.989Z,816
2018-01-22T07:32:54.845Z,980
2018-01-22T07:34:08.978Z,1028
2018-01-22T07:35:10.834Z,1024
2018-01-22T07:36:12.698Z,1076
2018-01-22T07:37:14.557Z,1120
2018-01-22T07:38:16.376Z,1080
2018-01-22T07:39:18.171Z,1052
2018-01-22T07:40:20.030Z,1092
2018-01-22T07:41:21.892Z,1148
2018-01-22T07:42:23.757Z,1008
2018-01-22T07:43:37.956Z,1172
2018-01-22T07:44:39.840Z,1236
2018-01-22T07:45:41.722Z,1276
2018-01-22T07:46:43.588Z,1460
2018-01-22T07:47:45.394Z,1500
2018-01-22T07:48:47.213Z,1476
2018-01-22T07:49:49.085Z,1372
2018-01-22T07:50:50.969Z,1520
2018-01-22T07:51:52.853Z,1540
2018-01-22T07:53:07.004Z,1500
2018-01-22T07:54:08.865Z,1644
2018-01-22T07:55:10.748Z,1676
2018-01-22T07:56:12.606Z,1876
2018-01-22T07:57:14.412Z,1980
2018-01-22T07:58:16.225Z,1944
2018-01-22T07:59:18.091Z,2092
2018-01-22T08:00:19.956Z,2092
2018-01-22T08:01:21.838Z,2272
2018-01-22T08:02:35.962Z,2264
2018-01-22T08:03:37.826Z,2252
2018-01-22T08:04:39.702Z,2332
2018-01-22T08:05:41.598Z,2356
2018-01-22T08:06:43.400Z,2428
2018-01-22T08:07:45.222Z,2352
2018-01-22T08:08:47.106Z,2408
2018-01-22T08:09:48.964Z,2612
2018-01-22T08:10:50.830Z,2536
2018-01-22T08:12:05.013Z,2816
2018-01-22T08:13:06.901Z,3196
2018-01-22T08:14:08.760Z,3240
2018-01-22T08:15:10.624Z,3012
2018-01-22T08:16:12.444Z,3212
2018-01-22T08:17:14.242Z,3552
2018-01-22T08:18:16.103Z,3372
2018-01-22T08:19:17.967Z,3312
2018-01-22T08:20:19.852Z,3448
2018-01-22T08:21:33.963Z,3624
2018-01-22T08:22:35.847Z,3812
2018-01-22T08:23:37.708Z,3872
2018-01-22T08:24:39.573Z,3720
2018-01-22T08:25:41.374Z,3696
2018-01-22T08:26:43.172Z,3424
2018-01-22T08:27:45.054Z,3596
2018-01-22T08:28:46.922Z,3656
2018-01-22T08:29:48.804Z,3540
2018-01-22T08:31:03.046Z,3608
2018-01-22T08:32:04.846Z,4148
2018-01-22T08:33:06.705Z,3888
2018-01-22T08:34:08.567Z,3760
2018-01-22T08:35:10.370Z,3996
2018-01-22T08:36:12.171Z,3944
2018-01-22T08:37:14.033Z,4340
2018-01-22T08:38:15.916Z,4292
2018-01-22T08:39:17.780Z,4424
2018-01-22T08:40:31.983Z,4520
2018-01-22T08:41:33.869Z,4384
2018-01-22T08:42:35.754Z,4448
2018-01-22T08:43:37.616Z,4440
2018-01-22T08:44:39.418Z,4444
2018-01-22T08:45:41.240Z,4408
2018-01-22T08:46:43.134Z,4736
2018-01-22T08:47:45.017Z,4704
2018-01-22T08:48:46.901Z,4628
2018-01-22T08:50:01.059Z,4556
2018-01-22T08:51:02.937Z,4680
2018-01-22T08:52:04.799Z,4656
2018-01-22T08:53:06.663Z,4868
2018-01-22T08:54:08.467Z,4560
2018-01-22T08:55:10.291Z,4632
2018-01-22T08:56:12.172Z,4448
2018-01-22T08:57:14.038Z,4216
2018-01-22T08:58:15.896Z,4276
2018-01-22T08:59:30.032Z,4592
2018-01-22T09:00:31.893Z,4332
2018-01-22T09:01:33.753Z,4944
2018-01-22T09:02:35.615Z,4880
2018-01-22T09:03:37.412Z,4592
2018-01-22T09:04:39.211Z,4588
2018-01-22T09:05:41.075Z,4900
2018-01-22T09:06:42.940Z,5300
2018-01-22T09:07:44.797Z,6304
2018-01-22T09:08:58.979Z,7148
2018-01-22T09:10:00.861Z,7272
2018-01-22T09:11:02.727Z,7356
2018-01-22T09:12:04.588Z,7076
2018-01-22T09:13:06.389Z,6420
2018-01-22T09:14:08.188Z,6788
2018-01-22T09:15:10.075Z,6704
2018-01-22T09:16:11.959Z,7152
2018-01-22T09:17:13.825Z,6340
2018-01-22T09:18:27.972Z,6148
2018-01-22T09:19:29.832Z,5792
2018-01-22T09:20:31.693Z,6052
2018-01-22T09:21:33.562Z,5696
2018-01-22T09:22:35.359Z,5696
2018-01-22T09:23:37.157Z,6060
2018-01-22T09:24:39.024Z,6000
2018-01-22T09:25:40.918Z,6308
2018-01-22T09:26:42.794Z,6440
2018-01-22T09:27:56.976Z,7416
2018-01-22T09:28:58.843Z,6300
2018-01-22T09:30:00.708Z,6152
2018-01-22T09:31:02.564Z,6300
2018-01-22T09:32:04.372Z,6300
2018-01-22T09:33:06.173Z,6292
2018-01-22T09:34:08.037Z,6500
2018-01-22T09:35:09.922Z,6556
2018-01-22T09:36:11.784Z,6808
2018-01-22T09:37:25.972Z,6596
2018-01-22T09:38:27.857Z,6636
2018-01-22T09:39:29.746Z,6816
2018-01-22T09:40:31.635Z,6440
2018-01-22T09:41:33.435Z,6500
2018-01-22T09:42:35.256Z,6148
2018-01-22T09:43:37.140Z,6292
2018-01-22T09:44:39.002Z,6552
2018-01-22T09:45:40.862Z,6596
2018-01-22T09:46:55.041Z,6772
2018-01-22T09:47:56.908Z,6988
2018-01-22T09:48:58.794Z,6992
2018-01-22T09:50:00.656Z,6924
2018-01-22T09:51:02.461Z,6848
2018-01-22T09:52:04.286Z,6652
2018-01-22T09:53:06.174Z,6652
2018-01-22T09:54:08.061Z,6620
2018-01-22T09:55:09.923Z,6492
2018-01-22T09:56:24.052Z,6196
2018-01-22T09:57:25.919Z,5984
2018-01-22T09:58:27.803Z,5820
2018-01-22T09:59:29.706Z,6068
2018-01-22T10:00:31.484Z,5832
2018-01-22T10:01:33.285Z,5928
2018-01-22T10:02:35.152Z,5952
2018-01-22T10:03:37.042Z,5588
2018-01-22T10:04:38.930Z,5360
2018-01-22T10:05:53.086Z,5212
2018-01-22T10:06:54.968Z,5236
2018-01-22T10:07:56.836Z,4812
2018-01-22T10:08:58.707Z,4572
2018-01-22T10:10:00.522Z,4692
2018-01-22T10:11:02.326Z,4776
2018-01-22T10:12:04.212Z,4932
2018-01-22T10:13:06.103Z,5120
2018-01-22T10:14:07.986Z,5712
2018-01-22T10:15:22.119Z,6056
2018-01-22T10:16:24.001Z,5932
2018-01-22T10:17:25.866Z,5836
2018-01-22T10:18:27.733Z,5896
2018-01-22T10:19:29.533Z,5508
2018-01-22T10:20:31.329Z,5220
2018-01-22T10:21:33.194Z,4964
2018-01-22T10:22:35.067Z,5100
2018-01-22T10:23:36.952Z,5620
2018-01-22T10:24:51.108Z,5412
2018-01-22T10:25:52.994Z,5520
2018-01-22T10:26:54.855Z,5568
2018-01-22T10:27:56.716Z,6352
2018-01-22T10:28:58.526Z,6032
2018-01-22T10:30:00.349Z,6080
2018-01-22T10:31:02.232Z,6188
2018-01-22T10:32:04.117Z,6468
2018-01-22T10:33:05.981Z,6628
2018-01-22T10:34:20.112Z,6112
2018-01-22T10:35:21.975Z,6000
2018-01-22T10:36:23.839Z,5644
2018-01-22T10:37:25.700Z,5552
2018-01-22T10:38:27.505Z,5796
2018-01-22T10:39:29.326Z,6056
2018-01-22T10:40:31.208Z,6168
2018-01-22T10:41:33.071Z,6108
2018-01-22T10:42:34.931Z,6284
2018-01-22T10:43:49.079Z,6232
2018-01-22T10:44:50.931Z,6380
2018-01-22T10:45:52.796Z,6272
2018-01-22T10:46:54.661Z,6340
2018-01-22T10:47:56.492Z,6436
2018-01-22T10:48:58.314Z,6484
2018-01-22T10:50:00.155Z,6488
2018-01-22T10:51:01.972Z,6720
2018-01-22T10:52:03.776Z,6964
2018-01-22T10:53:17.931Z,7704
2018-01-22T10:54:19.815Z,7640
2018-01-22T10:55:21.698Z,7532
2018-01-22T10:56:23.564Z,7600
2018-01-22T10:57:25.374Z,7648
2018-01-22T10:58:27.191Z,7700
2018-01-22T10:59:29.062Z,7792
2018-01-22T11:00:30.927Z,7672
2018-01-22T11:01:32.809Z,7500
2018-01-22T11:02:46.939Z,7288
2018-01-22T11:03:48.804Z,7080
2018-01-22T11:04:50.691Z,6896
2018-01-22T11:05:52.553Z,6620
2018-01-22T11:06:54.360Z,6556
2018-01-22T11:07:56.184Z,6532
2018-01-22T11:08:58.045Z,6664
2018-01-22T11:09:59.932Z,6812
2018-01-22T11:11:01.797Z,6996
2018-01-22T11:12:15.953Z,7308
2018-01-22T11:13:17.841Z,7348
2018-01-22T11:14:19.721Z,7424
2018-01-22T11:15:21.591Z,7584
2018-01-22T11:16:23.414Z,7864
2018-01-22T11:17:25.211Z,8288
2018-01-22T11:18:27.081Z,8724
2018-01-22T11:19:28.947Z,8816
2018-01-22T11:20:30.830Z,8920
2018-01-22T11:21:45.014Z,9092
2018-01-22T11:22:46.883Z,9260
2018-01-22T11:23:48.771Z,9316
2018-01-22T11:24:50.656Z,9516
2018-01-22T11:25:52.456Z,9728
2018-01-22T11:26:54.260Z,9732
2018-01-22T11:27:56.142Z,9748
2018-01-22T11:28:58.016Z,9740
2018-01-22T11:29:59.898Z,9808
2018-01-22T11:31:14.035Z,9860
2018-01-22T11:32:15.922Z,9884
2018-01-22T11:33:17.794Z,9748
2018-01-22T11:34:19.668Z,9488
2018-01-22T11:35:21.464Z,9244
2018-01-22T11:36:23.262Z,8960
2018-01-22T11:37:25.148Z,8572
2018-01-22T11:38:27.044Z,8456
2018-01-22T11:39:28.911Z,8456
2018-01-22T11:40:43.050Z,8176
2018-01-22T11:41:44.935Z,8128
2018-01-22T11:42:46.820Z,8164
2018-01-22T11:43:48.681Z,8368
2018-01-22T11:44:50.487Z,8816
2018-01-22T11:45:52.286Z,9308
2018-01-22T11:46:54.156Z,9608
2018-01-22T11:47:56.049Z,9104
2018-01-22T11:48:57.913Z,8204
2018-01-22T11:50:12.047Z,7620
2018-01-22T11:51:13.934Z,7444
2018-01-22T11:52:15.823Z,7556
2018-01-22T11:53:17.709Z,7492
2018-01-22T11:54:19.533Z,7340
2018-01-22T11:55:21.336Z,7340
2018-01-22T11:56:23.201Z,7508
2018-01-22T11:57:25.088Z,7736
2018-01-22T11:58:26.950Z,7712
2018-01-22T11:59:41.083Z,7380
2018-01-22T12:00:42.954Z,7232
2018-01-22T12:01:44.843Z,7188
2018-01-22T12:02:46.730Z,7048
2018-01-22T12:03:48.544Z,6844
2018-01-22T12:04:50.340Z,6740
2018-01-22T12:05:52.226Z,6728
2018-01-22T12:06:54.090Z,6644
2018-01-22T12:07:55.958Z,6520
2018-01-22T12:09:10.114Z,6400
2018-01-22T12:10:12.000Z,6276
2018-01-22T12:11:13.895Z,6164
2018-01-22T12:12:15.782Z,6116
2018-01-22T12:13:17.605Z,6100
2018-01-22T12:14:19.409Z,6052
2018-01-22T12:15:21.274Z,5936
2018-01-22T12:16:23.165Z,5764
2018-01-22T12:17:25.048Z,5584
2018-01-22T12:18:39.183Z,5372
2018-01-22T12:19:41.081Z,5208
2018-01-22T12:20:42.946Z,5088
2018-01-22T12:21:44.813Z,5016
2018-01-22T12:22:46.618Z,5052
2018-01-22T12:23:48.439Z,5152
2018-01-22T12:24:50.325Z,5248
2018-01-22T12:25:52.192Z,5356
2018-01-22T12:26:54.082Z,5424
2018-01-22T12:28:08.235Z,5520
2018-01-22T12:29:10.101Z,5612
2018-01-22T12:30:11.990Z,5720
2018-01-22T12:31:13.856Z,5764
2018-01-22T12:32:15.681Z,5860
2018-01-22T12:33:17.484Z,5920
2018-01-22T12:34:19.373Z,6008
2018-01-22T12:35:21.256Z,6040
2018-01-22T12:36:23.128Z,6040
2018-01-22T12:37:37.285Z,6056
2018-01-22T12:38:39.172Z,6072
2018-01-22T12:39:41.067Z,6052
2018-01-22T12:40:42.949Z,6020
2018-01-22T12:41:44.759Z,6008
2018-01-22T12:42:46.576Z,5956
2018-01-22T12:43:48.440Z,5848
2018-01-22T12:44:50.330Z,5632
2018-01-22T12:45:52.193Z,5392
2018-01-22T12:47:06.351Z,5180
2018-01-22T12:48:08.230Z,5060
2018-01-22T12:49:10.081Z,4956
2018-01-22T12:50:11.973Z,4856
2018-01-22T12:51:13.797Z,4772
2018-01-22T12:52:15.598Z,4716
2018-01-22T12:53:17.486Z,4728
2018-01-22T12:54:19.350Z,4796
2018-01-22T12:55:21.213Z,4880
2018-01-22T12:56:35.349Z,4956
2018-01-22T12:57:37.230Z,5036
2018-01-22T12:58:39.100Z,5116
2018-01-22T12:59:40.983Z,5172
2018-01-22T13:00:42.790Z,5228
2018-01-22T13:01:44.601Z,5288
2018-01-22T13:02:46.481Z,5392
2018-01-22T13:03:48.343Z,5596
2018-01-22T13:04:50.212Z,5896
2018-01-22T13:06:04.368Z,6204
2018-01-22T13:07:06.257Z,6256
2018-01-22T13:08:08.150Z,6068
2018-01-22T13:09:10.029Z,5616
2018-01-22T13:10:11.830Z,5136
2018-01-22T13:11:13.630Z,4808
2018-01-22T13:12:15.495Z,4628
2018-01-22T13:13:17.374Z,4600
2018-01-22T13:14:19.254Z,4696
2018-01-22T13:15:33.404Z,5048
2018-01-22T13:16:35.276Z,5332
2018-01-22T13:17:37.164Z,5512
2018-01-22T13:18:39.029Z,5584
2018-01-22T13:19:40.853Z,5648
2018-01-22T13:20:42.651Z,5720
2018-01-22T13:21:44.516Z,5768
2018-01-22T13:22:46.388Z,5728
2018-01-22T13:23:48.277Z,5560
2018-01-22T13:25:02.430Z,5208
2018-01-22T13:26:04.295Z,4948
2018-01-22T13:27:06.176Z,4728
2018-01-22T13:28:08.098Z,4600
2018-01-22T13:29:09.902Z,4492
2018-01-22T13:30:11.726Z,4384
2018-01-22T13:31:13.616Z,4320
2018-01-22T13:32:15.481Z,4340
2018-01-22T13:33:17.366Z,4444
2018-01-22T13:34:31.501Z,4628
2018-01-22T13:35:33.383Z,4780
2018-01-22T13:36:35.251Z,4952
2018-01-22T13:37:37.120Z,5068
2018-01-22T13:38:38.944Z,5076
2018-01-22T13:39:40.746Z,5000
2018-01-22T13:40:42.608Z,4860
2018-01-22T13:41:44.493Z,4732
2018-01-22T13:42:46.376Z,4612
2018-01-22T13:44:00.574Z,4468
2018-01-22T13:45:02.541Z,4356
2018-01-22T13:46:04.426Z,4260
2018-01-22T13:47:06.361Z,4156
2018-01-22T13:48:08.184Z,4076
2018-01-22T13:49:10.007Z,4032
2018-01-22T13:50:11.874Z,4012
2018-01-22T13:51:13.761Z,4008
2018-01-22T13:52:15.627Z,3996
2018-01-22T13:53:29.783Z,3956
2018-01-22T13:54:31.670Z,3916
2018-01-22T13:55:33.560Z,3880
2018-01-22T13:56:35.441Z,3856
2018-01-22T13:57:37.255Z,3812
2018-01-22T13:58:39.044Z,3764
2018-01-22T13:59:40.907Z,3724
2018-01-22T14:00:42.778Z,3680
2018-01-22T14:01:44.667Z,3628
2018-01-22T14:02:58.871Z,3564
2018-01-22T14:04:00.756Z,3548
2018-01-22T14:05:02.627Z,3572
2018-01-22T14:06:04.513Z,3632
2018-01-22T14:07:06.315Z,3632
2018-01-22T14:08:08.135Z,3444
2018-01-22T14:09:10.012Z,3152
2018-01-22T14:10:11.894Z,2836
2018-01-22T14:11:13.755Z,2604
2018-01-22T14:12:27.888Z,2324
2018-01-22T14:13:29.751Z,2128
2018-01-22T14:14:31.615Z,2008
2018-01-22T14:15:33.477Z,1944
2018-01-22T14:16:35.276Z,1952
2018-01-22T14:17:37.118Z,2044
2018-01-22T14:18:38.946Z,2172
2018-01-22T14:19:40.827Z,2276
2018-01-22T14:20:42.747Z,2284
2018-01-22T14:21:56.843Z,2216
2018-01-22T14:22:58.727Z,2148
2018-01-22T14:24:00.609Z,2116
2018-01-22T14:25:02.473Z,2104
2018-01-22T14:26:04.279Z,2088
2018-01-22T14:27:06.096Z,2072
2018-01-22T14:28:07.962Z,2068
2018-01-22T14:29:09.845Z,2092
2018-01-22T14:30:11.713Z,2156
2018-01-22T14:31:25.892Z,2220
2018-01-22T14:32:27.778Z,2244
2018-01-22T14:33:29.664Z,2200
2018-01-22T14:34:31.550Z,2096
2018-01-22T14:35:33.370Z,1980
2018-01-22T14:36:35.178Z,1860
2018-01-22T14:37:37.070Z,1740
2018-01-22T14:38:38.953Z,1616
2018-01-22T14:39:40.840Z,1536
2018-01-22T14:40:54.969Z,1476
2018-01-22T14:41:56.850Z,1436